Slatedale, Pennsylvania
Current Conditions -  °F | °C
As of 11:51 PM on Wednesday 26 Nov 2014 (Local Time) from KABE Reporting Station
Overcast Overcast  
Wind Chill: 30°   Ceiling: 4700
Heat Index: 35°   Visibility: 10mi
Dew Point: 29°   Wind: 6mph
Humidity: 78%   Direction: 250°WSW
Pressure: 29.9"   Gusts: NA
Location:  40.74°N, 75.66°W
Report Text: KABE 270451Z 25005KT 10SM BKN047 OVC100 02/M02 A2990 RMK AO2 SLP129 T00171017 400610006 $
Loading
Personal Weather Stations






























Interactive Weather Map New forecast layout! Learn more

10-Day Weather Forecast

Advertisements
Track Severe Weather on mobile